Time;durP1;ratioP1;P1;durP2;ratioP2;P2;SDS_P1;SDS_P2;PMS_P1;PMS_P2;Temp;Humidity;BMP_temperature;BMP_pressure;BME280_temperature;BME280_humidity;BME280_pressure;Samples;Min_cycle;Max_cycle;Signal;HPM_P1;HPM_P2
2022/04/30 00:00:47;;;;;;;36.28;18.55;;;7.70;99.90;;;;;;4990670;28;20030;-87
2022/04/30 00:03:13;;;;;;;26.42;16.23;;;7.70;99.90;;;;;;4990973;28;20026;-87
2022/04/30 00:05:39;;;;;;;29.55;17.05;;;7.70;99.90;;;;;;4990481;28;20072;-83
2022/04/30 00:08:05;;;;;;;29.27;16.73;;;7.70;99.90;;;;;;4987167;28;20462;-83
2022/04/30 00:10:37;;;;;;;31.05;19.05;;;7.70;99.90;;;;;;4995965;28;20125;-87
2022/04/30 00:13:07;;;;;;;29.70;17.27;;;7.70;99.90;;;;;;4991262;28;20030;-87
2022/04/30 00:15:34;;;;;;;35.22;19.13;;;7.60;99.90;;;;;;4972152;28;20607;-87
2022/04/30 00:18:00;;;;;;;30.40;18.58;;;7.60;99.90;;;;;;4985325;28;20383;-83
2022/04/30 00:20:26;;;;;;;32.08;17.45;;;7.60;99.90;;;;;;4978378;28;20445;-87
2022/04/30 00:22:51;;;;;;;33.38;19.58;;;7.70;99.90;;;;;;5003475;28;20114;-87
2022/04/30 00:25:17;;;;;;;36.22;20.60;;;7.60;99.90;;;;;;4988757;28;20121;-87
2022/04/30 00:27:43;;;;;;;37.15;18.02;;;7.60;99.90;;;;;;4989594;28;20040;-87
2022/04/30 00:30:09;;;;;;;34.92;19.73;;;7.60;99.90;;;;;;4989281;28;20022;-86
2022/04/30 00:32:35;;;;;;;27.38;16.77;;;7.50;99.90;;;;;;4973797;28;20042;-87
2022/04/30 00:35:02;;;;;;;35.67;18.08;;;7.50;99.90;;;;;;4989576;28;20635;-87
2022/04/30 00:37:28;;;;;;;29.27;18.33;;;7.40;99.90;;;;;;4990438;28;20129;-83
2022/04/30 00:39:53;;;;;;;45.97;19.83;;;7.50;99.90;;;;;;4983415;28;20026;-86
2022/04/30 00:42:19;;;;;;;35.35;19.73;;;7.50;99.90;;;;;;5005548;28;20045;-83
2022/04/30 00:44:47;;;;;;;35.35;19.83;;;7.50;99.90;;;;;;4983048;28;20054;-83
2022/04/30 00:47:19;;;;;;;31.83;18.40;;;7.60;99.90;;;;;;4990319;28;20019;-83
2022/04/30 00:49:46;;;;;;;34.15;20.25;;;7.50;99.90;;;;;;4989000;28;20373;-83
2022/04/30 00:52:15;;;;;;;37.35;19.80;;;7.50;99.90;;;;;;4988898;28;20516;-83
2022/04/30 00:54:42;;;;;;;34.15;20.52;;;7.50;99.90;;;;;;4988397;28;20023;-84
2022/04/30 00:57:13;;;;;;;35.00;19.52;;;7.50;99.90;;;;;;4987337;28;20109;-86
2022/04/30 00:59:40;;;;;;;34.67;19.65;;;7.50;99.90;;;;;;4999507;28;20125;-87
2022/04/30 01:02:09;;;;;;;32.55;19.02;;;7.60;99.90;;;;;;4989961;28;20118;-83
2022/04/30 01:04:35;;;;;;;34.88;18.35;;;7.50;99.90;;;;;;4987695;28;20037;-83
2022/04/30 01:07:07;;;;;;;34.75;20.33;;;7.60;99.90;;;;;;4989881;28;20027;-87
2022/04/30 01:09:35;;;;;;;30.60;19.25;;;7.60;99.90;;;;;;4991337;28;20486;-86
2022/04/30 01:12:02;;;;;;;36.30;19.67;;;7.60;99.90;;;;;;4990056;28;20031;-86
2022/04/30 01:14:34;;;;;;;33.85;19.50;;;7.60;99.90;;;;;;4973151;28;20026;-87
2022/04/30 01:17:01;;;;;;;36.88;20.60;;;7.70;99.90;;;;;;4989700;28;20038;-87
2022/04/30 01:19:27;;;;;;;54.17;20.45;;;7.70;99.90;;;;;;4980217;28;20026;-87
2022/04/30 01:21:58;;;;;;;38.35;21.70;;;7.80;99.90;;;;;;4987178;28;20053;-87
2022/04/30 01:24:28;;;;;;;42.20;21.05;;;7.80;99.90;;;;;;4988505;28;20695;-87
2022/04/30 01:26:56;;;;;;;32.92;19.08;;;7.70;99.90;;;;;;4980340;28;20034;-87
2022/04/30 01:29:24;;;;;;;35.17;20.92;;;7.70;99.90;;;;;;4986085;28;20030;-86
2022/04/30 01:37:27;;;;;;;36.67;20.13;;;7.80;99.90;;;;;;4990420;28;20497;-87
2022/04/30 01:40:02;;;;;;;41.58;20.48;;;7.80;99.90;;;;;;4988488;28;20030;-87
2022/04/30 01:42:30;;;;;;;35.72;20.75;;;7.90;99.90;;;;;;4989295;28;20053;-83
2022/04/30 01:44:57;;;;;;;33.55;20.38;;;7.90;99.90;;;;;;4987752;28;20081;-83
2022/04/30 01:47:24;;;;;;;34.60;19.77;;;7.90;99.90;;;;;;5004239;28;20054;-87
2022/04/30 01:49:50;;;;;;;37.28;20.40;;;7.90;99.90;;;;;;4989525;28;20060;-87
2022/04/30 01:52:16;;;;;;;33.30;19.98;;;7.90;99.90;;;;;;4987966;28;20393;-87
2022/04/30 01:54:43;;;;;;;39.20;19.75;;;7.90;99.90;;;;;;5004402;28;20113;-87
2022/04/30 01:57:09;;;;;;;49.58;20.08;;;8.00;99.90;;;;;;4970221;28;20037;-83
2022/04/30 01:59:35;;;;;;;32.55;19.98;;;8.10;99.90;;;;;;4989108;28;20354;-87
2022/04/30 02:02:02;;;;;;;36.03;20.60;;;8.10;99.90;;;;;;4987726;28;20035;-87
2022/04/30 02:04:30;;;;;;;35.15;21.40;;;8.10;99.90;;;;;;4991707;28;20026;-83
2022/04/30 02:06:59;;;;;;;43.88;22.83;;;8.10;99.90;;;;;;4986049;28;20118;-83
2022/04/30 02:09:29;;;;;;;32.90;20.90;;;8.20;99.90;;;;;;4983996;28;20108;-83
2022/04/30 02:11:59;;;;;;;37.35;21.60;;;8.30;99.90;;;;;;4981033;28;20043;-83
2022/04/30 02:14:30;;;;;;;38.53;22.48;;;8.30;99.90;;;;;;4990867;28;20026;-85
2022/04/30 02:16:56;;;;;;;33.97;18.98;;;8.30;99.90;;;;;;4984075;28;20077;-83
2022/04/30 02:19:24;;;;;;;35.30;21.90;;;8.20;99.90;;;;;;4991856;28;20490;-83
2022/04/30 02:21:50;;;;;;;40.72;19.52;;;8.10;99.90;;;;;;4993110;28;20478;-86
2022/04/30 02:24:15;;;;;;;35.85;21.60;;;8.20;99.90;;;;;;4980373;28;20042;-83
2022/04/30 02:26:43;;;;;;;33.10;19.02;;;8.10;99.90;;;;;;4986973;28;20479;-83
2022/04/30 02:29:10;;;;;;;35.85;20.40;;;8.20;99.90;;;;;;4992740;28;20055;-83
2022/04/30 02:31:36;;;;;;;36.33;20.33;;;8.20;99.90;;;;;;4972569;28;20110;-87
2022/04/30 02:34:02;;;;;;;35.97;20.33;;;8.10;99.90;;;;;;4991836;28;20493;-87
2022/04/30 02:36:27;;;;;;;47.95;19.17;;;8.20;99.90;;;;;;4984571;28;20034;-83
2022/04/30 02:38:54;;;;;;;42.42;22.13;;;8.20;99.90;;;;;;4972958;28;20030;-83
2022/04/30 02:41:21;;;;;;;38.00;23.15;;;8.20;99.90;;;;;;4982183;28;20085;-86
2022/04/30 02:43:51;;;;;;;44.08;23.25;;;8.00;99.90;;;;;;4975633;28;20061;-83
2022/04/30 02:46:19;;;;;;;45.83;23.20;;;8.00;99.90;;;;;;5006436;28;20513;-83
2022/04/30 02:48:45;;;;;;;39.17;21.65;;;8.00;99.90;;;;;;4988737;28;20318;-83
2022/04/30 02:51:11;;;;;;;40.70;23.30;;;8.10;99.90;;;;;;4991727;28;20069;-83
2022/04/30 02:53:43;;;;;;;44.85;23.83;;;8.10;99.90;;;;;;4994718;28;20042;-83
2022/04/30 02:56:12;;;;;;;44.33;23.15;;;8.00;99.90;;;;;;4993508;28;20041;-84
2022/04/30 03:01:23;;;;;;;44.70;23.45;;;7.90;99.90;;;;;;4984581;28;20114;-83
2022/04/30 03:03:49;;;;;;;38.28;21.08;;;7.80;99.90;;;;;;4990853;28;20050;-82
2022/04/30 03:06:16;;;;;;;42.53;22.35;;;7.80;99.90;;;;;;4991412;28;20061;-82
2022/04/30 03:08:46;;;;;;;39.92;22.92;;;7.80;99.90;;;;;;4987077;28;20490;-82
2022/04/30 03:11:12;;;;;;;36.35;20.88;;;7.80;99.90;;;;;;4981334;28;20525;-82
2022/04/30 03:13:38;;;;;;;38.95;21.48;;;7.90;99.90;;;;;;5005027;28;20054;-82
2022/04/30 03:21:41;;;;;;;47.60;22.75;;;7.90;99.90;;;;;;4991130;28;20068;-85
2022/04/30 03:24:07;;;;;;;37.33;22.38;;;8.00;99.90;;;;;;4991974;28;20628;-85
2022/04/30 03:26:33;;;;;;;36.88;20.95;;;8.00;99.90;;;;;;4957868;28;20038;-82
2022/04/30 03:28:59;;;;;;;43.65;22.98;;;8.00;99.90;;;;;;4990843;28;20049;-84
2022/04/30 03:31:24;;;;;;;40.78;20.17;;;8.00;99.90;;;;;;4989702;28;20065;-82
2022/04/30 03:33:50;;;;;;;38.45;21.73;;;8.10;99.90;;;;;;4974061;28;20246;-85
2022/04/30 03:36:18;;;;;;;39.28;20.90;;;8.10;99.90;;;;;;4991323;28;20097;-85
2022/04/30 03:38:44;;;;;;;42.20;21.67;;;8.10;99.90;;;;;;4990626;28;20114;-81
2022/04/30 03:41:10;;;;;;;39.50;21.75;;;8.10;99.90;;;;;;4990429;28;20101;-82
2022/04/30 03:43:35;;;;;;;41.55;21.05;;;8.10;99.90;;;;;;4990838;28;20225;-82
2022/04/30 03:46:01;;;;;;;41.00;20.83;;;8.10;99.90;;;;;;5000464;28;20061;-85
2022/04/30 03:48:27;;;;;;;45.00;24.08;;;8.10;99.90;;;;;;4990418;28;20036;-85
2022/04/30 03:50:52;;;;;;;43.80;20.80;;;8.10;99.90;;;;;;4991084;28;20030;-85
2022/04/30 03:53:18;;;;;;;40.30;21.77;;;8.10;99.90;;;;;;5002528;28;20093;-85
2022/04/30 03:55:44;;;;;;;41.25;23.17;;;8.10;99.90;;;;;;4994846;28;20041;-85
2022/04/30 03:58:10;;;;;;;44.63;23.63;;;8.10;99.90;;;;;;4994636;28;20031;-85
2022/04/30 04:00:36;;;;;;;43.05;23.05;;;8.00;99.90;;;;;;4972401;28;20038;-85
2022/04/30 04:03:06;;;;;;;44.42;22.98;;;8.10;99.90;;;;;;4999470;28;20060;-81
2022/04/30 04:05:32;;;;;;;45.10;23.63;;;8.10;99.90;;;;;;5005936;28;20031;-81
2022/04/30 04:07:58;;;;;;;43.25;23.63;;;8.10;99.90;;;;;;4997508;28;20053;-81
2022/04/30 04:10:24;;;;;;;45.05;24.90;;;8.00;99.90;;;;;;4989507;28;20137;-85
2022/04/30 04:12:50;;;;;;;43.80;22.42;;;8.00;99.90;;;;;;4973008;28;20038;-82
2022/04/30 04:18:01;;;;;;;46.13;25.20;;;8.00;99.90;;;;;;4985487;28;20632;-85
2022/04/30 04:20:26;;;;;;;45.22;23.77;;;8.00;99.90;;;;;;4990390;28;20023;-85
2022/04/30 04:22:53;;;;;;;45.95;26.40;;;8.00;99.90;;;;;;5005964;28;20041;-82
2022/04/30 04:28:04;;;;;;;43.13;22.90;;;8.10;99.90;;;;;;4990784;28;20045;-86
2022/04/30 04:30:31;;;;;;;46.42;23.85;;;8.10;99.90;;;;;;4989837;28;20034;-85
2022/04/30 04:32:57;;;;;;;51.13;24.17;;;8.10;99.90;;;;;;4965267;28;20041;-85
2022/04/30 04:35:24;;;;;;;49.47;25.05;;;8.20;99.90;;;;;;4989913;28;20133;-86
2022/04/30 04:37:50;;;;;;;44.45;26.88;;;8.20;99.90;;;;;;5005804;28;20030;-85
2022/04/30 04:40:16;;;;;;;48.67;25.98;;;8.20;99.90;;;;;;4991442;28;20053;-85
2022/04/30 04:42:43;;;;;;;47.03;23.80;;;8.10;99.90;;;;;;4995257;28;20041;-85
2022/04/30 04:45:10;;;;;;;43.95;25.30;;;8.10;99.90;;;;;;4998423;28;20042;-85
2022/04/30 04:47:40;;;;;;;46.42;23.52;;;8.10;99.90;;;;;;4990207;28;20489;-85
2022/04/30 04:50:12;;;;;;;44.70;23.02;;;8.00;99.90;;;;;;4972123;28;20058;-82
2022/04/30 04:52:41;;;;;;;38.88;23.27;;;8.00;99.90;;;;;;4986372;28;20031;-82
2022/04/30 04:55:07;;;;;;;46.38;25.95;;;8.10;99.90;;;;;;4988614;28;20032;-82
2022/04/30 04:57:33;;;;;;;49.60;25.80;;;8.00;99.90;;;;;;4988704;28;20034;-81
2022/04/30 04:59:58;;;;;;;45.58;23.90;;;8.00;99.90;;;;;;4987880;28;20031;-82
2022/04/30 05:02:25;;;;;;;44.42;24.98;;;8.00;99.90;;;;;;4984666;28;20041;-82
2022/04/30 05:04:50;;;;;;;45.60;24.05;;;8.10;99.90;;;;;;4988741;28;20022;-81
2022/04/30 05:07:16;;;;;;;46.35;25.05;;;8.10;99.90;;;;;;4989412;28;20026;-85
2022/04/30 05:09:41;;;;;;;49.28;25.55;;;8.20;99.90;;;;;;4986824;28;20041;-85
2022/04/30 05:12:08;;;;;;;49.03;25.20;;;8.10;99.90;;;;;;4991280;28;20030;-85
2022/04/30 05:14:34;;;;;;;51.17;27.38;;;8.10;99.90;;;;;;4990321;28;20022;-85
2022/04/30 05:17:01;;;;;;;45.85;25.38;;;8.10;99.90;;;;;;4986636;28;20045;-86
2022/04/30 05:19:26;;;;;;;54.08;28.00;;;8.20;99.90;;;;;;4988448;28;20073;-86
2022/04/30 05:21:52;;;;;;;52.85;26.80;;;8.30;99.90;;;;;;4988971;28;20058;-87
2022/04/30 05:24:18;;;;;;;46.28;25.13;;;8.40;99.90;;;;;;4984784;28;20164;-87
2022/04/30 05:26:44;;;;;;;52.17;26.38;;;8.30;99.90;;;;;;5003125;28;20477;-87
2022/04/30 05:29:09;;;;;;;43.22;24.95;;;8.30;99.90;;;;;;4990690;28;20028;-87
2022/04/30 05:31:35;;;;;;;49.25;25.45;;;8.40;99.90;;;;;;4987968;28;20501;-87
2022/04/30 05:34:01;;;;;;;46.20;26.15;;;8.50;99.90;;;;;;4990620;28;20030;-86
2022/04/30 05:36:26;;;;;;;53.83;27.23;;;8.60;99.90;;;;;;5004470;28;20034;-86
2022/04/30 05:38:52;;;;;;;49.03;25.20;;;8.60;99.90;;;;;;4981899;28;20703;-83
2022/04/30 05:41:18;;;;;;;52.03;27.85;;;8.60;99.90;;;;;;4991042;28;20112;-83
2022/04/30 05:43:44;;;;;;;52.28;26.88;;;8.60;99.90;;;;;;4987804;28;20027;-83
2022/04/30 05:46:12;;;;;;;57.17;27.27;;;8.60;99.90;;;;;;4990763;28;20039;-85
2022/04/30 05:48:37;;;;;;;57.92;26.02;;;8.80;99.90;;;;;;5003346;28;20034;-85
2022/04/30 05:51:03;;;;;;;52.58;26.40;;;8.90;99.90;;;;;;4989718;28;20038;-85
2022/04/30 05:53:29;;;;;;;47.40;26.58;;;8.70;99.90;;;;;;4968416;28;20136;-81
2022/04/30 05:55:54;;;;;;;54.85;26.05;;;8.70;99.90;;;;;;4988999;28;20030;-81
2022/04/30 05:58:20;;;;;;;50.00;26.33;;;8.70;99.90;;;;;;4988145;28;20540;-82
2022/04/30 06:00:46;;;;;;;51.40;27.35;;;8.70;99.90;;;;;;4988093;28;20088;-81
2022/04/30 06:03:12;;;;;;;52.25;26.80;;;8.70;99.90;;;;;;4988382;28;20366;-81
2022/04/30 06:05:38;;;;;;;51.40;27.65;;;8.60;99.90;;;;;;4989182;28;20117;-83
2022/04/30 06:08:05;;;;;;;52.05;27.55;;;8.70;99.90;;;;;;5003900;28;20033;-87
2022/04/30 06:10:31;;;;;;;51.53;30.58;;;8.70;99.90;;;;;;4988601;28;20034;-87
2022/04/30 06:12:57;;;;;;;49.33;26.88;;;8.60;99.90;;;;;;4987937;28;20038;-87
2022/04/30 06:15:23;;;;;;;49.90;26.05;;;8.70;99.90;;;;;;4990607;28;20200;-83
2022/04/30 06:17:49;;;;;;;49.80;26.45;;;8.70;99.90;;;;;;4987510;28;20034;-82
2022/04/30 06:20:15;;;;;;;52.45;28.35;;;8.60;99.90;;;;;;4989039;28;20362;-86
2022/04/30 06:22:40;;;;;;;58.15;31.02;;;8.60;99.90;;;;;;4988682;28;20046;-87
2022/04/30 06:25:07;;;;;;;57.70;27.98;;;8.70;99.90;;;;;;4992875;28;20099;-83
2022/04/30 06:27:33;;;;;;;54.75;26.88;;;8.70;99.90;;;;;;4988839;28;20030;-87
2022/04/30 06:29:59;;;;;;;52.25;27.77;;;8.80;99.90;;;;;;4988284;28;20032;-87
2022/04/30 06:32:26;;;;;;;55.40;29.80;;;8.90;99.90;;;;;;4985056;28;20037;-87
2022/04/30 06:34:52;;;;;;;55.30;29.58;;;8.90;99.90;;;;;;4984677;28;20404;-87
2022/04/30 06:37:17;;;;;;;54.65;29.65;;;8.80;99.90;;;;;;5001556;28;20026;-87
2022/04/30 06:39:44;;;;;;;62.30;29.77;;;8.90;99.90;;;;;;5004853;28;20034;-83
2022/04/30 06:42:10;;;;;;;57.53;28.58;;;8.90;99.90;;;;;;4988450;28;20034;-83
2022/04/30 06:44:35;;;;;;;57.22;30.17;;;8.90;99.90;;;;;;4986652;28;20054;-87
2022/04/30 06:47:01;;;;;;;61.33;30.40;;;9.10;99.90;;;;;;4989131;28;20482;-86
2022/04/30 06:49:27;;;;;;;58.85;29.55;;;9.00;99.90;;;;;;4955141;28;20125;-82
2022/04/30 06:51:52;;;;;;;52.92;28.90;;;9.00;99.90;;;;;;4989525;28;20486;-83
2022/04/30 06:57:12;;;;;;;60.28;30.60;;;9.20;99.90;;;;;;4993376;28;20045;-83
2022/04/30 06:59:41;;;;;;;63.45;29.13;;;9.40;99.90;;;;;;4975211;28;20061;-82
2022/04/30 07:02:23;;;;;;;62.60;32.22;;;9.20;99.90;;;;;;4983526;28;20037;-82
2022/04/30 07:04:51;;;;;;;63.17;30.15;;;9.20;99.90;;;;;;4988472;28;20850;-82
2022/04/30 07:07:18;;;;;;;57.83;31.25;;;9.50;99.90;;;;;;4990174;28;20049;-82
2022/04/30 07:09:45;;;;;;;67.40;33.45;;;9.60;99.90;;;;;;4990090;28;20056;-82
2022/04/30 07:12:13;;;;;;;63.42;32.20;;;9.80;99.90;;;;;;4989183;28;20089;-82
2022/04/30 07:14:40;;;;;;;59.45;32.80;;;9.90;99.90;;;;;;4973404;28;20074;-82
2022/04/30 07:17:09;;;;;;;64.43;33.80;;;9.90;99.90;;;;;;4972320;28;20041;-82
2022/04/30 07:19:35;;;;;;;75.72;35.60;;;9.80;99.90;;;;;;4982290;28;20296;-82
2022/04/30 07:22:03;;;;;;;67.60;35.33;;;9.80;99.90;;;;;;4987333;28;20057;-86
2022/04/30 07:24:30;;;;;;;69.57;36.97;;;9.80;99.90;;;;;;4991501;28;20018;-87
2022/04/30 07:26:56;;;;;;;69.82;33.80;;;9.80;99.90;;;;;;5005421;28;20057;-83
2022/04/30 07:29:22;;;;;;;61.33;32.00;;;9.60;99.90;;;;;;5005604;28;20447;-82
2022/04/30 07:31:47;;;;;;;69.32;32.17;;;9.70;99.90;;;;;;4988383;28;20521;-82
2022/04/30 07:34:13;;;;;;;69.07;34.53;;;9.70;99.90;;;;;;5002387;28;20410;-82
2022/04/30 07:36:39;;;;;;;71.95;33.70;;;9.50;99.90;;;;;;4989523;28;20758;-82
2022/04/30 07:39:06;;;;;;;71.50;33.88;;;9.60;99.90;;;;;;4986841;28;20046;-82
2022/04/30 07:41:31;;;;;;;68.00;34.20;;;9.60;99.90;;;;;;4992024;28;20034;-82
2022/04/30 07:43:57;;;;;;;72.75;33.22;;;9.60;99.90;;;;;;5006922;28;20699;-82
2022/04/30 07:46:23;;;;;;;77.07;34.90;;;9.70;99.90;;;;;;5006540;28;20062;-83
2022/04/30 07:48:50;;;;;;;74.88;35.97;;;9.60;99.90;;;;;;5007568;28;20050;-86
2022/04/30 07:51:18;;;;;;;68.70;35.35;;;9.80;99.90;;;;;;4990782;28;20037;-86
2022/04/30 07:53:45;;;;;;;69.97;34.95;;;9.80;99.90;;;;;;4990847;28;20064;-82
2022/04/30 07:56:11;;;;;;;71.30;33.53;;;10.00;99.90;;;;;;4989277;28;20596;-82
2022/04/30 07:58:37;;;;;;;78.75;35.22;;;9.90;99.90;;;;;;4987447;28;20102;-82
2022/04/30 08:01:03;;;;;;;73.72;35.10;;;9.90;99.90;;;;;;4990519;28;20081;-86
2022/04/30 08:03:29;;;;;;;72.72;35.53;;;10.10;99.90;;;;;;4990018;28;20076;-86
2022/04/30 08:05:54;;;;;;;83.63;36.08;;;10.00;99.90;;;;;;4990465;28;20061;-82
2022/04/30 08:08:20;;;;;;;86.32;40.33;;;9.90;99.90;;;;;;4990333;28;20099;-85
2022/04/30 08:10:46;;;;;;;81.25;36.17;;;10.00;99.90;;;;;;5002534;28;20035;-86
2022/04/30 08:13:12;;;;;;;80.43;36.58;;;10.20;99.90;;;;;;5004941;28;20026;-85
2022/04/30 08:15:43;;;;;;;74.30;35.75;;;10.40;99.90;;;;;;4989285;28;20045;-86
2022/04/30 08:18:10;;;;;;;77.22;37.28;;;10.30;99.90;;;;;;4990946;28;20478;-84
2022/04/30 08:20:37;;;;;;;87.63;36.55;;;10.10;99.90;;;;;;4990946;28;20046;-84
2022/04/30 08:23:04;;;;;;;73.30;35.63;;;10.30;99.90;;;;;;4990057;28;20030;-84
2022/04/30 08:25:29;;;;;;;81.32;39.25;;;10.50;99.90;;;;;;4990219;28;20033;-81
2022/04/30 08:27:55;;;;;;;75.38;35.95;;;10.90;99.90;;;;;;4989069;28;20034;-82
2022/04/30 08:30:20;;;;;;;78.18;34.75;;;10.60;99.90;;;;;;4988547;28;20038;-81
2022/04/30 08:32:48;;;;;;;84.55;37.33;;;10.30;99.90;;;;;;4983495;28;20483;-81
2022/04/30 08:35:14;;;;;;;77.57;35.78;;;10.30;99.90;;;;;;4984712;28;22513;-81
2022/04/30 08:37:40;;;;;;;83.28;33.58;;;10.40;99.90;;;;;;4989861;28;20066;-81
2022/04/30 08:40:06;;;;;;;69.68;34.22;;;10.20;99.90;;;;;;5005758;28;20097;-81
2022/04/30 08:42:32;;;;;;;74.10;34.72;;;10.10;99.90;;;;;;4989498;28;20030;-82
2022/04/30 08:45:01;;;;;;;62.25;33.53;;;10.20;99.90;;;;;;5004827;28;20050;-85
2022/04/30 08:47:29;;;;;;;85.40;34.88;;;10.20;99.90;;;;;;4989252;28;20030;-85
2022/04/30 08:49:57;;;;;;;70.53;32.58;;;10.00;99.90;;;;;;4987951;28;20125;-85
2022/04/30 08:52:23;;;;;;;69.40;32.88;;;10.10;99.90;;;;;;4988403;28;20041;-85
2022/04/30 08:54:48;;;;;;;67.82;33.53;;;9.90;99.90;;;;;;4980354;28;20483;-83
2022/04/30 08:57:15;;;;;;;78.05;35.97;;;9.80;99.90;;;;;;4988330;28;20271;-83
2022/04/30 08:59:42;;;;;;;69.53;35.13;;;9.80;99.90;;;;;;4985744;28;20046;-79
2022/04/30 09:02:10;;;;;;;69.45;33.22;;;9.80;99.90;;;;;;4987802;28;20038;-79
2022/04/30 09:04:48;;;;;;;71.50;34.00;;;9.80;99.90;;;;;;4989726;28;20037;-79
2022/04/30 09:07:15;;;;;;;67.70;36.03;;;9.90;99.90;;;;;;4988612;28;20501;-80
2022/04/30 09:09:41;;;;;;;65.57;33.42;;;9.90;99.90;;;;;;4988777;28;20417;-80
2022/04/30 09:12:09;;;;;;;64.30;31.08;;;9.80;99.90;;;;;;4987725;28;20085;-83
2022/04/30 09:14:37;;;;;;;76.20;36.38;;;9.70;99.90;;;;;;4984482;28;20045;-85
2022/04/30 09:17:09;;;;;;;69.75;32.80;;;9.60;99.90;;;;;;4984606;28;20038;-83
2022/04/30 09:19:57;;;;;;;70.53;34.67;;;9.60;99.90;;;;;;4987667;28;20041;-81
2022/04/30 09:22:33;;;;;;;71.65;32.33;;;9.70;99.90;;;;;;5001113;28;20494;-80
2022/04/30 09:25:00;;;;;;;66.53;32.42;;;9.70;99.90;;;;;;5005841;28;20042;-80
2022/04/30 09:27:27;;;;;;;68.32;31.80;;;9.70;99.90;;;;;;4989265;28;20533;-80
2022/04/30 09:29:52;;;;;;;62.70;32.70;;;9.50;99.90;;;;;;4989474;28;20786;-83
2022/04/30 09:32:24;;;;;;;69.35;30.42;;;9.50;99.90;;;;;;4990063;28;20035;-83
2022/04/30 09:37:42;;;;;;;67.85;33.67;;;9.40;99.90;;;;;;4987261;28;20056;-80
2022/04/30 09:40:18;;;;;;;68.28;34.13;;;9.50;99.90;;;;;;4988497;28;20027;-81
2022/04/30 09:42:48;;;;;;;70.03;32.15;;;9.50;99.90;;;;;;4980472;28;20094;-81
2022/04/30 09:45:34;;;;;;;61.88;31.70;;;9.60;99.90;;;;;;4985706;28;20081;-81
2022/04/30 09:53:56;;;;;;;60.05;32.70;;;9.50;99.90;;;;;;4993842;28;20026;-81
2022/04/30 09:56:44;;;;;;;57.67;32.75;;;9.70;99.90;;;;;;4986512;28;20048;-81
2022/04/30 09:59:15;;;;;;;69.55;33.65;;;9.60;99.90;;;;;;4987697;28;20065;-81
2022/04/30 10:01:42;;;;;;;59.53;31.42;;;9.70;99.90;;;;;;5000176;28;20042;-81
2022/04/30 10:04:13;;;;;;;71.47;33.33;;;9.90;99.90;;;;;;4994779;28;20547;-80
2022/04/30 10:06:43;;;;;;;67.78;32.42;;;10.10;99.90;;;;;;4987324;28;20031;-80
2022/04/30 10:09:31;;;;;;;66.55;33.47;;;10.20;99.90;;;;;;4988222;28;20030;-80
2022/04/30 10:12:14;;;;;;;62.38;33.40;;;10.10;99.90;;;;;;4987397;28;20508;-81
2022/04/30 10:14:58;;;;;;;63.20;33.75;;;10.10;99.90;;;;;;4983507;28;20113;-81
2022/04/30 10:17:26;;;;;;;67.60;35.08;;;10.00;99.90;;;;;;4989345;28;20110;-86
2022/04/30 10:20:18;;;;;;;62.45;31.65;;;10.10;99.90;;;;;;4988094;28;20604;-81
2022/04/30 10:22:58;;;;;;;63.80;31.83;;;10.10;99.90;;;;;;4988586;28;20026;-81
2022/04/30 10:25:43;;;;;;;60.30;32.38;;;10.20;99.90;;;;;;4987944;28;20485;-81
2022/04/30 10:28:23;;;;;;;57.80;31.25;;;10.10;99.90;;;;;;4981182;28;20031;-81
2022/04/30 10:31:00;;;;;;;58.83;30.83;;;10.20;99.90;;;;;;4977870;28;20434;-81
2022/04/30 10:33:26;;;;;;;55.67;28.45;;;10.40;99.90;;;;;;4991640;28;20035;-81
2022/04/30 10:36:06;;;;;;;54.10;29.73;;;10.70;99.90;;;;;;4989646;28;20045;-81
2022/04/30 10:38:33;;;;;;;54.97;27.75;;;10.70;99.90;;;;;;4983170;28;20030;-82
2022/04/30 10:41:00;;;;;;;56.17;27.63;;;10.80;99.90;;;;;;4992242;28;20026;-85
2022/04/30 10:43:35;;;;;;;50.80;28.35;;;11.00;99.90;;;;;;4992914;28;20602;-81
2022/04/30 10:46:03;;;;;;;46.85;25.05;;;11.40;99.90;;;;;;4981376;28;20046;-81
2022/04/30 10:48:29;;;;;;;42.78;23.52;;;11.30;99.90;;;;;;4993029;28;20066;-85
2022/04/30 10:51:13;;;;;;;47.40;27.27;;;11.20;99.90;;;;;;4992518;28;20350;-85
2022/04/30 10:53:45;;;;;;;43.83;26.02;;;11.40;99.90;;;;;;4986705;28;20041;-84
2022/04/30 10:56:13;;;;;;;42.08;23.35;;;12.10;99.90;;;;;;4993287;28;20065;-81
2022/04/30 10:58:41;;;;;;;40.45;22.67;;;12.30;99.90;;;;;;4990661;28;20351;-84
2022/04/30 11:01:18;;;;;;;44.90;26.40;;;12.70;99.90;;;;;;5007360;28;20034;-85
2022/04/30 11:03:49;;;;;;;42.95;25.70;;;12.60;99.90;;;;;;4993316;28;20031;-87
2022/04/30 11:06:23;;;;;;;39.15;24.38;;;11.80;99.90;;;;;;4992251;28;20166;-86
2022/04/30 11:09:15;;;;;;;44.35;23.38;;;11.30;99.90;;;;;;4990456;28;20520;-85
2022/04/30 11:11:46;;;;;;;38.08;22.23;;;11.10;99.90;;;;;;4990223;28;20049;-84
2022/04/30 11:14:12;;;;;;;36.33;20.80;;;10.90;99.90;;;;;;4989949;28;20225;-83
2022/04/30 11:16:46;;;;;;;34.75;20.58;;;10.90;99.90;;;;;;4990346;28;20109;-83
2022/04/30 11:19:21;;;;;;;31.92;21.70;;;10.90;99.90;;;;;;4995185;28;20035;-84
2022/04/30 11:21:51;;;;;;;29.85;19.67;;;11.00;99.90;;;;;;4972701;28;20118;-83
2022/04/30 11:24:31;;;;;;;35.03;21.92;;;11.00;99.90;;;;;;4991481;28;20026;-83
2022/04/30 11:27:05;;;;;;;39.50;22.45;;;11.00;99.90;;;;;;4958192;28;20429;-83
2022/04/30 11:29:32;;;;;;;34.38;21.52;;;11.20;99.90;;;;;;4990532;28;20110;-83
2022/04/30 11:31:59;;;;;;;31.75;19.88;;;11.20;99.90;;;;;;4987519;28;20035;-84
2022/04/30 11:34:25;;;;;;;35.28;20.23;;;11.70;99.90;;;;;;4990885;28;20149;-84
2022/04/30 11:36:53;;;;;;;35.40;21.65;;;11.90;99.90;;;;;;4990431;28;20042;-84
2022/04/30 11:39:20;;;;;;;34.95;21.67;;;12.90;99.90;;;;;;4990058;28;20377;-82
2022/04/30 11:41:51;;;;;;;30.13;19.42;;;12.90;99.90;;;;;;4989660;28;20041;-82
2022/04/30 11:44:17;;;;;;;;;;;13.70;99.90;;;;;;4990400;28;20638;-82
2022/04/30 11:46:45;;;;;;;29.88;17.42;;;14.00;99.90;;;;;;5003360;28;19914;-83
2022/04/30 11:49:13;;;;;;;26.75;17.27;;;14.40;99.90;;;;;;4991877;28;20478;-85
2022/04/30 11:51:41;;;;;;;29.42;18.67;;;14.80;99.90;;;;;;4989191;28;20042;-82
2022/04/30 11:54:12;;;;;;;25.48;18.65;;;15.10;99.90;;;;;;4984077;28;20045;-84
2022/04/30 11:56:39;;;;;;;28.38;19.30;;;15.50;99.90;;;;;;4996421;28;20133;-84
2022/04/30 11:59:06;;;;;;;29.55;19.67;;;15.10;99.90;;;;;;5003178;28;20073;-83
2022/04/30 12:01:38;;;;;;;25.70;19.20;;;13.80;99.90;;;;;;4991088;28;20046;-84
2022/04/30 12:04:08;;;;;;;30.70;19.70;;;13.30;99.90;;;;;;5007826;28;20019;-83
2022/04/30 12:06:34;;;;;;;24.70;17.23;;;13.30;99.90;;;;;;4991803;28;20030;-83
2022/04/30 12:09:00;;;;;;;19.30;15.52;;;13.10;99.90;;;;;;4973358;28;20361;-83
2022/04/30 12:11:26;;;;;;;19.40;14.05;;;13.90;99.90;;;;;;4986911;28;20042;-83
2022/04/30 12:14:02;;;;;;;23.67;16.67;;;14.00;99.90;;;;;;4990908;28;20022;-84
2022/04/30 12:16:40;;;;;;;22.02;15.95;;;13.70;99.90;;;;;;4991399;28;20053;-84
2022/04/30 12:25:12;;;;;;;21.15;15.10;;;12.50;99.90;;;;;;4989517;28;20413;-85
2022/04/30 12:27:40;;;;;;;20.00;14.00;;;12.40;99.90;;;;;;4997427;28;20030;-85
2022/04/30 12:30:14;;;;;;;20.75;15.52;;;12.40;99.90;;;;;;4988189;28;20027;-85
2022/04/30 12:32:59;;;;;;;20.45;15.32;;;12.50;99.90;;;;;;4976571;28;20043;-85
2022/04/30 12:35:26;;;;;;;18.02;13.27;;;12.80;99.90;;;;;;4989956;28;20037;-84
2022/04/30 12:38:01;;;;;;;17.92;13.18;;;13.20;99.90;;;;;;4990394;28;20061;-84
2022/04/30 12:40:27;;;;;;;15.90;10.50;;;13.70;99.90;;;;;;5005991;28;20324;-84
2022/04/30 12:42:53;;;;;;;17.67;12.27;;;13.50;99.40;;;;;;4994606;28;20130;-84
2022/04/30 12:45:18;;;;;;;17.33;12.13;;;13.50;99.90;;;;;;4993074;28;20114;-84
2022/04/30 12:47:44;;;;;;;17.30;12.55;;;13.70;99.90;;;;;;5002207;28;20041;-84
2022/04/30 12:50:10;;;;;;;18.88;13.10;;;13.70;99.90;;;;;;4986871;28;20038;-84
2022/04/30 12:52:35;;;;;;;19.52;14.02;;;14.30;99.90;;;;;;4986419;28;20245;-84
2022/04/30 12:55:01;;;;;;;17.73;12.40;;;14.90;99.90;;;;;;5004886;28;20118;-85
2022/04/30 12:57:27;;;;;;;16.58;13.35;;;15.50;99.90;;;;;;5003652;28;20117;-86
2022/04/30 12:59:53;;;;;;;19.10;14.02;;;14.90;94.70;;;;;;4986320;28;20026;-85
2022/04/30 13:02:22;;;;;;;22.13;14.20;;;15.10;93.20;;;;;;4993284;28;20041;-85
2022/04/30 13:04:50;;;;;;;20.83;13.88;;;14.60;99.90;;;;;;4989697;28;20031;-86
2022/04/30 13:07:16;;;;;;;18.90;14.13;;;14.30;95.70;;;;;;4991357;28;20022;-85
2022/04/30 13:15:10;;;;;;;19.77;13.63;;;15.20;94.90;;;;;;4986242;28;20444;-83
2022/04/30 13:17:36;;;;;;;17.17;13.00;;;15.00;95.50;;;;;;4991218;28;20026;-85
2022/04/30 13:20:04;;;;;;;24.73;14.68;;;14.50;92.70;;;;;;4991228;28;20391;-85